メインページ
METAR-TAF:

METAR-TAF

空港 :

タリハ, ボリビア

緯度: 21-33S, 経度: 064-42W, 海抜: 1854m

現時点の気象観測

当レポートは2時間48分前の03:00(UTC)に作成
無風
気温 15°C
湿度 82%
気圧 1025 hPa
視程10km以上
高度2000ftの千切れ雲あり
高度7000ftの千切れ雲あり

METAR: SLTJ 210300Z 00000KT 9999 BKN020 BKN070 15/12 Q1025

時間: 01:48 (05:48 UTC)

予報

当レポートは1時間48分前の04:00(UTC)に作成
予報は21日の 06時(UTC)から 22日の 06時(UTC)まで有効
の風 kt
視程10km以上
高度2000ftの千切れ雲あり
高度7000ftの曇り
21日の 08時(UTC)から 21日の 11時(UTC)まで一時的に
視程: 6000m
21日の 14時(UTC)から 21日の 16時(UTC)まで徐々に
南/南東の風 10kt
高度2700ftの千切れ雲あり
高度7000ftの千切れ雲あり
22日の 02時(UTC)から 22日の 04時(UTC)まで徐々に
の風 kt

TAF: SLTJ 210400Z 2106/2206 00000KT 9999 BKN020 OVC070 TX22/2119Z TN13 /2110Z TEMPO 2108/2111 6000 RA BECMG 2114/2116 15010KT BKN027 BKN070 BECMG 2202/2204 00000KT

4,000以上の空港の気象観測と天気予報(METAR報とTAF報)

利用可能な観測所は地図上に黄色い丸と赤い丸で示す。

丸の上にカーソルを重ねると観測所名を参照できる。

次にクリックすると気象観測と天気予報を参照できる。

マップの切り替え:黒色「×」印の緑ボタンをクリックして拡大、「-」印の緑ボタンをクリックして縮小、緑色の三角印をクリックして隣りの地図に切り替え


METAR-TAF: